sensor_id;sensor_type;location;lat;lon;timestamp;P1;durP1;ratioP1;P2;durP2;ratioP2
11488;SDS011;5801;50.804;12.638;2023-04-15T00:01:32;5.15;;;3.83;;
11488;SDS011;5801;50.804;12.638;2023-04-15T00:04:00;6.65;;;4.40;;
11488;SDS011;5801;50.804;12.638;2023-04-15T00:06:26;7.38;;;4.70;;
11488;SDS011;5801;50.804;12.638;2023-04-15T00:08:52;5.65;;;3.88;;
11488;SDS011;5801;50.804;12.638;2023-04-15T00:11:18;5.88;;;4.47;;
11488;SDS011;5801;50.804;12.638;2023-04-15T00:13:44;4.90;;;3.70;;
11488;SDS011;5801;50.804;12.638;2023-04-15T00:16:10;6.28;;;4.35;;
11488;SDS011;5801;50.804;12.638;2023-04-15T00:18:36;6.53;;;4.40;;
11488;SDS011;5801;50.804;12.638;2023-04-15T00:21:02;4.25;;;2.97;;
11488;SDS011;5801;50.804;12.638;2023-04-15T00:23:29;6.82;;;4.20;;
11488;SDS011;5801;50.804;12.638;2023-04-15T00:25:54;5.95;;;3.45;;
11488;SDS011;5801;50.804;12.638;2023-04-15T00:28:20;6.25;;;3.88;;
11488;SDS011;5801;50.804;12.638;2023-04-15T00:30:46;5.85;;;3.65;;
11488;SDS011;5801;50.804;12.638;2023-04-15T00:33:12;5.03;;;3.50;;
11488;SDS011;5801;50.804;12.638;2023-04-15T00:35:38;5.82;;;3.53;;
11488;SDS011;5801;50.804;12.638;2023-04-15T00:38:04;5.22;;;3.88;;
11488;SDS011;5801;50.804;12.638;2023-04-15T00:40:31;4.20;;;3.30;;
11488;SDS011;5801;50.804;12.638;2023-04-15T00:42:57;5.38;;;3.83;;
11488;SDS011;5801;50.804;12.638;2023-04-15T00:45:23;6.10;;;4.07;;
11488;SDS011;5801;50.804;12.638;2023-04-15T00:47:49;4.13;;;2.95;;
11488;SDS011;5801;50.804;12.638;2023-04-15T00:50:15;6.53;;;4.03;;
11488;SDS011;5801;50.804;12.638;2023-04-15T00:52:41;4.72;;;3.63;;
11488;SDS011;5801;50.804;12.638;2023-04-15T00:55:07;5.40;;;3.65;;
11488;SDS011;5801;50.804;12.638;2023-04-15T00:57:34;4.40;;;3.35;;
11488;SDS011;5801;50.804;12.638;2023-04-15T01:00:00;4.93;;;3.55;;
11488;SDS011;5801;50.804;12.638;2023-04-15T01:02:27;4.18;;;3.15;;
11488;SDS011;5801;50.804;12.638;2023-04-15T01:04:52;3.58;;;2.80;;
11488;SDS011;5801;50.804;12.638;2023-04-15T01:07:18;4.32;;;3.20;;
11488;SDS011;5801;50.804;12.638;2023-04-15T01:09:44;3.33;;;2.80;;
11488;SDS011;5801;50.804;12.638;2023-04-15T01:12:11;3.88;;;2.85;;
11488;SDS011;5801;50.804;12.638;2023-04-15T01:14:39;5.78;;;3.25;;
11488;SDS011;5801;50.804;12.638;2023-04-15T01:17:05;3.25;;;2.95;;
11488;SDS011;5801;50.804;12.638;2023-04-15T01:19:31;4.10;;;2.88;;
11488;SDS011;5801;50.804;12.638;2023-04-15T01:21:57;5.65;;;2.85;;
11488;SDS011;5801;50.804;12.638;2023-04-15T01:24:23;2.88;;;2.55;;
11488;SDS011;5801;50.804;12.638;2023-04-15T01:26:51;4.97;;;3.13;;
11488;SDS011;5801;50.804;12.638;2023-04-15T01:29:18;2.55;;;2.35;;
11488;SDS011;5801;50.804;12.638;2023-04-15T01:31:50;2.90;;;2.25;;
11488;SDS011;5801;50.804;12.638;2023-04-15T01:34:16;3.60;;;2.92;;
11488;SDS011;5801;50.804;12.638;2023-04-15T01:36:42;5.78;;;2.80;;
11488;SDS011;5801;50.804;12.638;2023-04-15T01:39:08;3.08;;;2.65;;
11488;SDS011;5801;50.804;12.638;2023-04-15T01:41:33;3.45;;;2.63;;
11488;SDS011;5801;50.804;12.638;2023-04-15T01:43:59;2.97;;;2.67;;
11488;SDS011;5801;50.804;12.638;2023-04-15T01:46:25;3.53;;;2.85;;
11488;SDS011;5801;50.804;12.638;2023-04-15T01:48:51;4.15;;;2.60;;
11488;SDS011;5801;50.804;12.638;2023-04-15T01:51:17;4.03;;;3.03;;
11488;SDS011;5801;50.804;12.638;2023-04-15T01:53:43;4.05;;;2.67;;
11488;SDS011;5801;50.804;12.638;2023-04-15T01:56:09;3.25;;;2.60;;
11488;SDS011;5801;50.804;12.638;2023-04-15T01:58:35;3.92;;;2.92;;
11488;SDS011;5801;50.804;12.638;2023-04-15T02:01:01;4.18;;;3.00;;
11488;SDS011;5801;50.804;12.638;2023-04-15T02:03:28;5.43;;;3.53;;
11488;SDS011;5801;50.804;12.638;2023-04-15T02:05:54;4.03;;;3.47;;
11488;SDS011;5801;50.804;12.638;2023-04-15T02:08:20;4.82;;;3.47;;
11488;SDS011;5801;50.804;12.638;2023-04-15T02:10:46;4.22;;;3.45;;
11488;SDS011;5801;50.804;12.638;2023-04-15T02:13:12;5.13;;;3.45;;
11488;SDS011;5801;50.804;12.638;2023-04-15T02:15:38;4.25;;;3.03;;
11488;SDS011;5801;50.804;12.638;2023-04-15T02:18:04;4.25;;;3.08;;
11488;SDS011;5801;50.804;12.638;2023-04-15T02:20:31;3.97;;;2.85;;
11488;SDS011;5801;50.804;12.638;2023-04-15T02:22:56;2.60;;;2.40;;
11488;SDS011;5801;50.804;12.638;2023-04-15T02:25:22;3.75;;;2.60;;
11488;SDS011;5801;50.804;12.638;2023-04-15T02:27:48;3.65;;;2.72;;
11488;SDS011;5801;50.804;12.638;2023-04-15T02:30:14;3.60;;;2.85;;
11488;SDS011;5801;50.804;12.638;2023-04-15T02:32:41;3.03;;;2.72;;
11488;SDS011;5801;50.804;12.638;2023-04-15T02:35:08;3.63;;;2.60;;
11488;SDS011;5801;50.804;12.638;2023-04-15T02:37:35;4.40;;;3.35;;
11488;SDS011;5801;50.804;12.638;2023-04-15T02:40:05;3.30;;;3.00;;
11488;SDS011;5801;50.804;12.638;2023-04-15T02:42:33;4.15;;;3.25;;
11488;SDS011;5801;50.804;12.638;2023-04-15T02:44:59;5.45;;;3.45;;
11488;SDS011;5801;50.804;12.638;2023-04-15T02:47:24;4.85;;;3.00;;
11488;SDS011;5801;50.804;12.638;2023-04-15T02:49:50;3.88;;;2.90;;
11488;SDS011;5801;50.804;12.638;2023-04-15T02:52:16;5.75;;;3.13;;
11488;SDS011;5801;50.804;12.638;2023-04-15T02:54:41;9.40;;;2.97;;
11488;SDS011;5801;50.804;12.638;2023-04-15T02:57:07;2.92;;;2.65;;
11488;SDS011;5801;50.804;12.638;2023-04-15T02:59:32;4.68;;;2.45;;
11488;SDS011;5801;50.804;12.638;2023-04-15T03:01:58;4.82;;;3.25;;
11488;SDS011;5801;50.804;12.638;2023-04-15T03:04:25;6.05;;;3.53;;
11488;SDS011;5801;50.804;12.638;2023-04-15T03:06:51;4.07;;;2.85;;
11488;SDS011;5801;50.804;12.638;2023-04-15T03:09:16;4.65;;;3.55;;
11488;SDS011;5801;50.804;12.638;2023-04-15T03:11:42;5.70;;;3.72;;
11488;SDS011;5801;50.804;12.638;2023-04-15T03:14:08;6.18;;;4.07;;
11488;SDS011;5801;50.804;12.638;2023-04-15T03:16:33;6.53;;;3.80;;
11488;SDS011;5801;50.804;12.638;2023-04-15T03:18:59;5.53;;;4.18;;
11488;SDS011;5801;50.804;12.638;2023-04-15T03:21:25;7.45;;;4.85;;
11488;SDS011;5801;50.804;12.638;2023-04-15T03:23:51;7.45;;;4.22;;
11488;SDS011;5801;50.804;12.638;2023-04-15T03:26:29;11.38;;;5.00;;
11488;SDS011;5801;50.804;12.638;2023-04-15T03:28:55;8.73;;;5.28;;
11488;SDS011;5801;50.804;12.638;2023-04-15T03:31:21;5.72;;;4.88;;
11488;SDS011;5801;50.804;12.638;2023-04-15T03:33:47;6.82;;;4.95;;
11488;SDS011;5801;50.804;12.638;2023-04-15T03:36:13;10.80;;;5.45;;
11488;SDS011;5801;50.804;12.638;2023-04-15T03:38:39;6.95;;;4.97;;
11488;SDS011;5801;50.804;12.638;2023-04-15T03:41:05;7.15;;;4.90;;
11488;SDS011;5801;50.804;12.638;2023-04-15T03:43:31;6.75;;;4.43;;
11488;SDS011;5801;50.804;12.638;2023-04-15T03:45:57;7.63;;;5.10;;
11488;SDS011;5801;50.804;12.638;2023-04-15T03:48:23;6.57;;;4.43;;
11488;SDS011;5801;50.804;12.638;2023-04-15T03:50:48;7.43;;;4.82;;
11488;SDS011;5801;50.804;12.638;2023-04-15T03:53:14;7.85;;;4.80;;
11488;SDS011;5801;50.804;12.638;2023-04-15T03:55:40;7.13;;;4.53;;
11488;SDS011;5801;50.804;12.638;2023-04-15T03:58:06;8.32;;;6.28;;
11488;SDS011;5801;50.804;12.638;2023-04-15T04:00:32;7.47;;;5.75;;
11488;SDS011;5801;50.804;12.638;2023-04-15T04:02:58;10.63;;;4.85;;
11488;SDS011;5801;50.804;12.638;2023-04-15T04:05:24;8.05;;;5.93;;
11488;SDS011;5801;50.804;12.638;2023-04-15T04:07:49;7.03;;;5.13;;
11488;SDS011;5801;50.804;12.638;2023-04-15T04:10:15;7.72;;;5.03;;
11488;SDS011;5801;50.804;12.638;2023-04-15T04:12:41;8.77;;;5.05;;
11488;SDS011;5801;50.804;12.638;2023-04-15T04:15:07;5.75;;;3.78;;
11488;SDS011;5801;50.804;12.638;2023-04-15T04:17:33;7.90;;;5.15;;
11488;SDS011;5801;50.804;12.638;2023-04-15T04:19:59;7.82;;;5.15;;
11488;SDS011;5801;50.804;12.638;2023-04-15T04:22:25;8.18;;;5.40;;
11488;SDS011;5801;50.804;12.638;2023-04-15T04:24:51;8.98;;;5.10;;
11488;SDS011;5801;50.804;12.638;2023-04-15T04:27:17;8.13;;;5.22;;
11488;SDS011;5801;50.804;12.638;2023-04-15T04:29:42;8.10;;;5.25;;
11488;SDS011;5801;50.804;12.638;2023-04-15T04:32:08;7.82;;;5.35;;
11488;SDS011;5801;50.804;12.638;2023-04-15T04:34:34;10.30;;;6.22;;
11488;SDS011;5801;50.804;12.638;2023-04-15T04:37:00;9.57;;;5.88;;
11488;SDS011;5801;50.804;12.638;2023-04-15T04:39:26;9.32;;;6.07;;
11488;SDS011;5801;50.804;12.638;2023-04-15T04:41:52;9.18;;;5.68;;
11488;SDS011;5801;50.804;12.638;2023-04-15T04:44:18;9.48;;;5.75;;
11488;SDS011;5801;50.804;12.638;2023-04-15T04:46:44;8.02;;;5.53;;
11488;SDS011;5801;50.804;12.638;2023-04-15T04:49:10;7.38;;;5.05;;
11488;SDS011;5801;50.804;12.638;2023-04-15T04:51:36;7.30;;;4.55;;
11488;SDS011;5801;50.804;12.638;2023-04-15T04:54:02;8.02;;;5.30;;
11488;SDS011;5801;50.804;12.638;2023-04-15T04:56:28;8.93;;;5.20;;
11488;SDS011;5801;50.804;12.638;2023-04-15T04:58:53;8.20;;;5.78;;
11488;SDS011;5801;50.804;12.638;2023-04-15T05:01:19;7.80;;;5.22;;
11488;SDS011;5801;50.804;12.638;2023-04-15T05:03:45;8.05;;;5.30;;
11488;SDS011;5801;50.804;12.638;2023-04-15T05:06:11;8.82;;;5.65;;
11488;SDS011;5801;50.804;12.638;2023-04-15T05:08:36;9.15;;;5.50;;
11488;SDS011;5801;50.804;12.638;2023-04-15T05:11:02;7.22;;;5.22;;
11488;SDS011;5801;50.804;12.638;2023-04-15T05:13:28;6.78;;;4.57;;
11488;SDS011;5801;50.804;12.638;2023-04-15T05:15:54;5.82;;;4.45;;
11488;SDS011;5801;50.804;12.638;2023-04-15T05:18:20;6.18;;;4.30;;
11488;SDS011;5801;50.804;12.638;2023-04-15T05:20:45;6.65;;;4.25;;
11488;SDS011;5801;50.804;12.638;2023-04-15T05:23:11;7.45;;;5.18;;
11488;SDS011;5801;50.804;12.638;2023-04-15T05:25:37;7.93;;;4.95;;
11488;SDS011;5801;50.804;12.638;2023-04-15T05:28:03;8.38;;;5.57;;
11488;SDS011;5801;50.804;12.638;2023-04-15T05:30:29;7.43;;;4.90;;
11488;SDS011;5801;50.804;12.638;2023-04-15T05:32:56;6.90;;;4.53;;
11488;SDS011;5801;50.804;12.638;2023-04-15T05:35:21;7.85;;;4.72;;
11488;SDS011;5801;50.804;12.638;2023-04-15T05:37:47;7.68;;;5.13;;
11488;SDS011;5801;50.804;12.638;2023-04-15T05:40:12;6.38;;;4.50;;
11488;SDS011;5801;50.804;12.638;2023-04-15T05:42:39;7.82;;;4.90;;
11488;SDS011;5801;50.804;12.638;2023-04-15T05:45:05;6.43;;;4.05;;
11488;SDS011;5801;50.804;12.638;2023-04-15T05:47:33;6.68;;;4.10;;
11488;SDS011;5801;50.804;12.638;2023-04-15T05:49:59;5.57;;;3.75;;
11488;SDS011;5801;50.804;12.638;2023-04-15T05:52:25;5.50;;;3.47;;
11488;SDS011;5801;50.804;12.638;2023-04-15T05:54:51;4.20;;;3.03;;
11488;SDS011;5801;50.804;12.638;2023-04-15T05:57:17;5.05;;;3.22;;
11488;SDS011;5801;50.804;12.638;2023-04-15T05:59:42;4.40;;;3.17;;
11488;SDS011;5801;50.804;12.638;2023-04-15T06:02:09;4.30;;;3.22;;
11488;SDS011;5801;50.804;12.638;2023-04-15T06:04:35;5.95;;;3.35;;
11488;SDS011;5801;50.804;12.638;2023-04-15T06:07:01;2.90;;;2.33;;
11488;SDS011;5801;50.804;12.638;2023-04-15T06:09:26;3.38;;;2.58;;
11488;SDS011;5801;50.804;12.638;2023-04-15T06:11:53;3.97;;;2.70;;
11488;SDS011;5801;50.804;12.638;2023-04-15T06:14:18;3.60;;;2.80;;
11488;SDS011;5801;50.804;12.638;2023-04-15T06:16:44;2.80;;;2.53;;
11488;SDS011;5801;50.804;12.638;2023-04-15T06:19:10;5.75;;;3.00;;
11488;SDS011;5801;50.804;12.638;2023-04-15T06:21:36;2.80;;;2.35;;
11488;SDS011;5801;50.804;12.638;2023-04-15T06:24:02;3.20;;;2.53;;
11488;SDS011;5801;50.804;12.638;2023-04-15T06:26:28;5.03;;;2.97;;
11488;SDS011;5801;50.804;12.638;2023-04-15T06:28:53;2.58;;;2.30;;
11488;SDS011;5801;50.804;12.638;2023-04-15T06:31:20;5.22;;;3.13;;
11488;SDS011;5801;50.804;12.638;2023-04-15T06:33:46;5.70;;;3.33;;
11488;SDS011;5801;50.804;12.638;2023-04-15T06:36:11;3.80;;;2.90;;
11488;SDS011;5801;50.804;12.638;2023-04-15T06:38:37;3.15;;;2.67;;
11488;SDS011;5801;50.804;12.638;2023-04-15T06:41:03;3.00;;;2.10;;
11488;SDS011;5801;50.804;12.638;2023-04-15T06:43:28;3.33;;;2.08;;
11488;SDS011;5801;50.804;12.638;2023-04-15T06:45:54;3.78;;;2.55;;
11488;SDS011;5801;50.804;12.638;2023-04-15T06:48:20;3.38;;;2.78;;
11488;SDS011;5801;50.804;12.638;2023-04-15T06:50:46;3.55;;;2.10;;
11488;SDS011;5801;50.804;12.638;2023-04-15T06:53:13;4.10;;;2.80;;
11488;SDS011;5801;50.804;12.638;2023-04-15T06:55:39;2.42;;;1.95;;
11488;SDS011;5801;50.804;12.638;2023-04-15T06:58:05;3.03;;;2.47;;
11488;SDS011;5801;50.804;12.638;2023-04-15T07:00:32;2.72;;;2.33;;
11488;SDS011;5801;50.804;12.638;2023-04-15T07:02:58;4.07;;;2.67;;
11488;SDS011;5801;50.804;12.638;2023-04-15T07:05:27;2.70;;;2.40;;
11488;SDS011;5801;50.804;12.638;2023-04-15T07:07:54;1.70;;;1.60;;
11488;SDS011;5801;50.804;12.638;2023-04-15T07:10:20;1.73;;;1.63;;
11488;SDS011;5801;50.804;12.638;2023-04-15T07:12:46;3.47;;;1.65;;
11488;SDS011;5801;50.804;12.638;2023-04-15T07:15:12;2.40;;;1.63;;
11488;SDS011;5801;50.804;12.638;2023-04-15T07:17:39;2.30;;;1.75;;
11488;SDS011;5801;50.804;12.638;2023-04-15T07:20:05;1.70;;;1.60;;
11488;SDS011;5801;50.804;12.638;2023-04-15T07:22:31;2.60;;;1.70;;
11488;SDS011;5801;50.804;12.638;2023-04-15T07:24:57;2.28;;;1.48;;
11488;SDS011;5801;50.804;12.638;2023-04-15T07:27:23;2.95;;;2.20;;
11488;SDS011;5801;50.804;12.638;2023-04-15T07:29:49;1.92;;;1.73;;
11488;SDS011;5801;50.804;12.638;2023-04-15T07:32:16;2.90;;;2.13;;
11488;SDS011;5801;50.804;12.638;2023-04-15T07:34:42;3.05;;;1.75;;
11488;SDS011;5801;50.804;12.638;2023-04-15T07:37:08;3.60;;;2.40;;
11488;SDS011;5801;50.804;12.638;2023-04-15T07:39:34;2.63;;;2.03;;
11488;SDS011;5801;50.804;12.638;2023-04-15T07:42:00;2.25;;;1.92;;
11488;SDS011;5801;50.804;12.638;2023-04-15T07:44:26;4.18;;;2.58;;
11488;SDS011;5801;50.804;12.638;2023-04-15T07:46:51;2.65;;;2.20;;
11488;SDS011;5801;50.804;12.638;2023-04-15T07:49:17;2.60;;;2.35;;
11488;SDS011;5801;50.804;12.638;2023-04-15T07:51:46;2.83;;;1.95;;
11488;SDS011;5801;50.804;12.638;2023-04-15T07:54:12;3.17;;;2.00;;
11488;SDS011;5801;50.804;12.638;2023-04-15T07:56:38;2.70;;;2.10;;
11488;SDS011;5801;50.804;12.638;2023-04-15T07:59:05;2.22;;;2.00;;
11488;SDS011;5801;50.804;12.638;2023-04-15T08:01:31;2.92;;;2.08;;
11488;SDS011;5801;50.804;12.638;2023-04-15T08:03:57;2.53;;;2.17;;
11488;SDS011;5801;50.804;12.638;2023-04-15T08:06:23;1.90;;;1.50;;
11488;SDS011;5801;50.804;12.638;2023-04-15T08:08:49;2.70;;;2.00;;
11488;SDS011;5801;50.804;12.638;2023-04-15T08:11:15;2.60;;;2.20;;
11488;SDS011;5801;50.804;12.638;2023-04-15T08:13:41;2.25;;;2.05;;
11488;SDS011;5801;50.804;12.638;2023-04-15T08:16:26;3.20;;;2.20;;
11488;SDS011;5801;50.804;12.638;2023-04-15T08:18:52;2.30;;;2.08;;
11488;SDS011;5801;50.804;12.638;2023-04-15T08:21:19;2.15;;;1.95;;
11488;SDS011;5801;50.804;12.638;2023-04-15T08:23:45;3.30;;;2.42;;
11488;SDS011;5801;50.804;12.638;2023-04-15T08:26:12;3.25;;;2.17;;
11488;SDS011;5801;50.804;12.638;2023-04-15T08:28:38;2.40;;;2.20;;
11488;SDS011;5801;50.804;12.638;2023-04-15T08:31:07;2.33;;;1.98;;
11488;SDS011;5801;50.804;12.638;2023-04-15T08:33:33;2.25;;;2.05;;
11488;SDS011;5801;50.804;12.638;2023-04-15T08:35:59;2.67;;;2.08;;
11488;SDS011;5801;50.804;12.638;2023-04-15T08:38:25;2.30;;;2.10;;
11488;SDS011;5801;50.804;12.638;2023-04-15T08:40:51;2.00;;;1.80;;
11488;SDS011;5801;50.804;12.638;2023-04-15T08:43:18;2.95;;;2.10;;
11488;SDS011;5801;50.804;12.638;2023-04-15T08:45:51;2.72;;;2.30;;
11488;SDS011;5801;50.804;12.638;2023-04-15T08:48:17;5.03;;;2.28;;
11488;SDS011;5801;50.804;12.638;2023-04-15T08:50:43;2.15;;;1.95;;
11488;SDS011;5801;50.804;12.638;2023-04-15T08:53:10;5.20;;;2.03;;
11488;SDS011;5801;50.804;12.638;2023-04-15T08:55:37;3.03;;;1.88;;
11488;SDS011;5801;50.804;12.638;2023-04-15T08:58:07;2.42;;;2.00;;
11488;SDS011;5801;50.804;12.638;2023-04-15T09:00:34;3.65;;;2.17;;
11488;SDS011;5801;50.804;12.638;2023-04-15T09:03:00;2.35;;;2.08;;
11488;SDS011;5801;50.804;12.638;2023-04-15T09:05:26;2.45;;;2.22;;
11488;SDS011;5801;50.804;12.638;2023-04-15T09:07:52;3.17;;;2.50;;
11488;SDS011;5801;50.804;12.638;2023-04-15T09:10:19;2.90;;;2.38;;
11488;SDS011;5801;50.804;12.638;2023-04-15T09:12:44;2.70;;;2.17;;
11488;SDS011;5801;50.804;12.638;2023-04-15T09:15:10;2.50;;;2.22;;
11488;SDS011;5801;50.804;12.638;2023-04-15T09:17:41;2.58;;;1.92;;
11488;SDS011;5801;50.804;12.638;2023-04-15T09:20:08;2.28;;;2.08;;
11488;SDS011;5801;50.804;12.638;2023-04-15T09:22:34;2.47;;;2.03;;
11488;SDS011;5801;50.804;12.638;2023-04-15T09:25:01;2.42;;;2.22;;
11488;SDS011;5801;50.804;12.638;2023-04-15T09:27:28;2.25;;;2.00;;
11488;SDS011;5801;50.804;12.638;2023-04-15T09:29:54;2.63;;;1.98;;
11488;SDS011;5801;50.804;12.638;2023-04-15T09:32:20;3.03;;;2.00;;
11488;SDS011;5801;50.804;12.638;2023-04-15T09:34:47;2.67;;;2.35;;
11488;SDS011;5801;50.804;12.638;2023-04-15T09:37:13;2.22;;;2.03;;
11488;SDS011;5801;50.804;12.638;2023-04-15T09:39:49;2.67;;;2.03;;
11488;SDS011;5801;50.804;12.638;2023-04-15T09:42:16;3.08;;;2.20;;
11488;SDS011;5801;50.804;12.638;2023-04-15T09:44:48;2.83;;;2.25;;
11488;SDS011;5801;50.804;12.638;2023-04-15T09:47:26;2.38;;;2.17;;
11488;SDS011;5801;50.804;12.638;2023-04-15T09:49:56;2.30;;;2.05;;
11488;SDS011;5801;50.804;12.638;2023-04-15T09:52:25;1.75;;;1.65;;
11488;SDS011;5801;50.804;12.638;2023-04-15T09:54:55;3.20;;;2.47;;
11488;SDS011;5801;50.804;12.638;2023-04-15T09:57:22;2.22;;;1.73;;
11488;SDS011;5801;50.804;12.638;2023-04-15T09:59:48;2.85;;;2.13;;
11488;SDS011;5801;50.804;12.638;2023-04-15T10:02:14;2.72;;;2.30;;
11488;SDS011;5801;50.804;12.638;2023-04-15T10:04:41;3.15;;;2.40;;
11488;SDS011;5801;50.804;12.638;2023-04-15T10:07:08;2.88;;;2.30;;
11488;SDS011;5801;50.804;12.638;2023-04-15T10:09:37;3.65;;;2.60;;
11488;SDS011;5801;50.804;12.638;2023-04-15T10:12:03;3.40;;;2.75;;
11488;SDS011;5801;50.804;12.638;2023-04-15T10:14:31;2.72;;;2.50;;
11488;SDS011;5801;50.804;12.638;2023-04-15T10:17:00;2.88;;;2.40;;
11488;SDS011;5801;50.804;12.638;2023-04-15T10:19:26;3.55;;;2.70;;
11488;SDS011;5801;50.804;12.638;2023-04-15T10:21:57;4.72;;;3.00;;
11488;SDS011;5801;50.804;12.638;2023-04-15T10:24:24;2.58;;;2.35;;
11488;SDS011;5801;50.804;12.638;2023-04-15T10:26:50;3.30;;;2.63;;
11488;SDS011;5801;50.804;12.638;2023-04-15T10:29:16;2.88;;;2.58;;
11488;SDS011;5801;50.804;12.638;2023-04-15T10:31:42;3.13;;;2.40;;
11488;SDS011;5801;50.804;12.638;2023-04-15T10:34:08;2.58;;;2.17;;
11488;SDS011;5801;50.804;12.638;2023-04-15T10:36:34;2.28;;;1.92;;
11488;SDS011;5801;50.804;12.638;2023-04-15T10:39:00;3.97;;;2.65;;
11488;SDS011;5801;50.804;12.638;2023-04-15T10:41:26;2.40;;;2.15;;
11488;SDS011;5801;50.804;12.638;2023-04-15T10:46:35;3.65;;;2.42;;
11488;SDS011;5801;50.804;12.638;2023-04-15T10:49:11;3.63;;;2.63;;
11488;SDS011;5801;50.804;12.638;2023-04-15T10:51:39;2.63;;;2.42;;
11488;SDS011;5801;50.804;12.638;2023-04-15T10:54:13;3.50;;;2.58;;
11488;SDS011;5801;50.804;12.638;2023-04-15T10:56:43;3.30;;;2.75;;
11488;SDS011;5801;50.804;12.638;2023-04-15T10:59:09;2.42;;;2.13;;
11488;SDS011;5801;50.804;12.638;2023-04-15T11:12:42;3.17;;;2.72;;
11488;SDS011;5801;50.804;12.638;2023-04-15T11:17:57;4.75;;;3.05;;
11488;SDS011;5801;50.804;12.638;2023-04-15T11:20:24;3.03;;;2.72;;
11488;SDS011;5801;50.804;12.638;2023-04-15T11:22:50;3.53;;;2.65;;
11488;SDS011;5801;50.804;12.638;2023-04-15T11:25:21;3.05;;;2.58;;
11488;SDS011;5801;50.804;12.638;2023-04-15T11:27:54;3.70;;;2.42;;
11488;SDS011;5801;50.804;12.638;2023-04-15T11:32:49;3.13;;;2.40;;
11488;SDS011;5801;50.804;12.638;2023-04-15T11:35:16;3.60;;;2.55;;
11488;SDS011;5801;50.804;12.638;2023-04-15T11:37:43;2.88;;;2.40;;
11488;SDS011;5801;50.804;12.638;2023-04-15T11:40:09;3.20;;;2.67;;
11488;SDS011;5801;50.804;12.638;2023-04-15T11:42:35;3.22;;;2.83;;
11488;SDS011;5801;50.804;12.638;2023-04-15T11:47:37;2.95;;;2.40;;
11488;SDS011;5801;50.804;12.638;2023-04-15T11:53:00;4.00;;;2.78;;
11488;SDS011;5801;50.804;12.638;2023-04-15T11:55:27;3.15;;;2.75;;
11488;SDS011;5801;50.804;12.638;2023-04-15T12:00:56;3.42;;;2.70;;
11488;SDS011;5801;50.804;12.638;2023-04-15T12:13:55;6.93;;;3.53;;
11488;SDS011;5801;50.804;12.638;2023-04-15T12:16:22;3.47;;;3.17;;
11488;SDS011;5801;50.804;12.638;2023-04-15T12:18:52;3.40;;;2.97;;
11488;SDS011;5801;50.804;12.638;2023-04-15T12:21:20;3.38;;;2.80;;
11488;SDS011;5801;50.804;12.638;2023-04-15T12:23:49;4.93;;;3.17;;
11488;SDS011;5801;50.804;12.638;2023-04-15T12:26:16;5.63;;;3.55;;
11488;SDS011;5801;50.804;12.638;2023-04-15T12:28:43;3.80;;;3.28;;
11488;SDS011;5801;50.804;12.638;2023-04-15T12:31:09;3.65;;;3.05;;
11488;SDS011;5801;50.804;12.638;2023-04-15T12:33:35;5.72;;;3.22;;
11488;SDS011;5801;50.804;12.638;2023-04-15T12:36:01;5.18;;;3.35;;
11488;SDS011;5801;50.804;12.638;2023-04-15T12:38:27;3.72;;;2.85;;
11488;SDS011;5801;50.804;12.638;2023-04-15T12:40:53;3.95;;;3.15;;
11488;SDS011;5801;50.804;12.638;2023-04-15T12:43:18;4.18;;;3.20;;
11488;SDS011;5801;50.804;12.638;2023-04-15T12:45:44;5.82;;;3.17;;
11488;SDS011;5801;50.804;12.638;2023-04-15T12:48:10;3.63;;;2.83;;
11488;SDS011;5801;50.804;12.638;2023-04-15T12:50:36;3.72;;;2.92;;
11488;SDS011;5801;50.804;12.638;2023-04-15T12:53:02;4.80;;;3.35;;
11488;SDS011;5801;50.804;12.638;2023-04-15T12:55:31;3.72;;;2.70;;
11488;SDS011;5801;50.804;12.638;2023-04-15T12:58:06;2.95;;;2.33;;
11488;SDS011;5801;50.804;12.638;2023-04-15T13:03:10;3.83;;;3.17;;
11488;SDS011;5801;50.804;12.638;2023-04-15T13:05:37;5.65;;;3.28;;
11488;SDS011;5801;50.804;12.638;2023-04-15T13:08:03;3.83;;;3.05;;
11488;SDS011;5801;50.804;12.638;2023-04-15T13:10:29;3.80;;;2.67;;
11488;SDS011;5801;50.804;12.638;2023-04-15T13:12:55;2.95;;;2.67;;
11488;SDS011;5801;50.804;12.638;2023-04-15T13:15:22;4.25;;;3.20;;
11488;SDS011;5801;50.804;12.638;2023-04-15T13:17:48;4.50;;;2.97;;
11488;SDS011;5801;50.804;12.638;2023-04-15T13:20:13;5.75;;;3.47;;
11488;SDS011;5801;50.804;12.638;2023-04-15T13:22:40;6.68;;;4.55;;
11488;SDS011;5801;50.804;12.638;2023-04-15T13:25:05;4.60;;;3.47;;
11488;SDS011;5801;50.804;12.638;2023-04-15T13:27:31;8.10;;;5.20;;
11488;SDS011;5801;50.804;12.638;2023-04-15T13:29:58;4.45;;;3.78;;
11488;SDS011;5801;50.804;12.638;2023-04-15T13:32:23;3.20;;;2.90;;
11488;SDS011;5801;50.804;12.638;2023-04-15T13:34:49;5.38;;;3.15;;
11488;SDS011;5801;50.804;12.638;2023-04-15T13:37:16;5.93;;;4.80;;
11488;SDS011;5801;50.804;12.638;2023-04-15T13:39:41;6.53;;;4.53;;
11488;SDS011;5801;50.804;12.638;2023-04-15T13:42:07;5.90;;;4.82;;
11488;SDS011;5801;50.804;12.638;2023-04-15T13:44:33;5.30;;;4.15;;
11488;SDS011;5801;50.804;12.638;2023-04-15T13:46:59;6.75;;;4.25;;
11488;SDS011;5801;50.804;12.638;2023-04-15T13:49:25;6.15;;;4.75;;
11488;SDS011;5801;50.804;12.638;2023-04-15T13:51:50;4.43;;;3.33;;
11488;SDS011;5801;50.804;12.638;2023-04-15T13:54:16;8.20;;;5.15;;
11488;SDS011;5801;50.804;12.638;2023-04-15T13:56:42;6.20;;;3.90;;
11488;SDS011;5801;50.804;12.638;2023-04-15T13:59:08;6.07;;;4.63;;
11488;SDS011;5801;50.804;12.638;2023-04-15T14:01:34;5.22;;;3.70;;
11488;SDS011;5801;50.804;12.638;2023-04-15T14:04:00;6.35;;;4.65;;
11488;SDS011;5801;50.804;12.638;2023-04-15T14:06:26;5.25;;;4.70;;
11488;SDS011;5801;50.804;12.638;2023-04-15T14:08:52;4.10;;;3.35;;
11488;SDS011;5801;50.804;12.638;2023-04-15T14:11:18;3.88;;;3.33;;
11488;SDS011;5801;50.804;12.638;2023-04-15T14:13:43;10.35;;;5.93;;
11488;SDS011;5801;50.804;12.638;2023-04-15T14:16:09;5.80;;;4.30;;
11488;SDS011;5801;50.804;12.638;2023-04-15T14:18:35;5.35;;;3.85;;
11488;SDS011;5801;50.804;12.638;2023-04-15T14:21:01;7.28;;;5.18;;
11488;SDS011;5801;50.804;12.638;2023-04-15T14:23:27;6.10;;;4.60;;
11488;SDS011;5801;50.804;12.638;2023-04-15T14:25:53;7.45;;;5.05;;
11488;SDS011;5801;50.804;12.638;2023-04-15T14:28:31;4.97;;;4.38;;
11488;SDS011;5801;50.804;12.638;2023-04-15T14:31:19;5.43;;;4.20;;
11488;SDS011;5801;50.804;12.638;2023-04-15T14:33:45;5.22;;;3.90;;
11488;SDS011;5801;50.804;12.638;2023-04-15T14:36:11;5.60;;;4.25;;
11488;SDS011;5801;50.804;12.638;2023-04-15T14:38:36;5.55;;;4.07;;
11488;SDS011;5801;50.804;12.638;2023-04-15T14:41:03;3.67;;;3.10;;
11488;SDS011;5801;50.804;12.638;2023-04-15T14:43:29;3.47;;;3.15;;
11488;SDS011;5801;50.804;12.638;2023-04-15T14:45:55;4.50;;;3.38;;
11488;SDS011;5801;50.804;12.638;2023-04-15T14:48:21;5.35;;;3.50;;
11488;SDS011;5801;50.804;12.638;2023-04-15T14:50:46;4.88;;;3.67;;
11488;SDS011;5801;50.804;12.638;2023-04-15T14:53:12;5.05;;;3.53;;
11488;SDS011;5801;50.804;12.638;2023-04-15T14:55:38;5.82;;;3.72;;
11488;SDS011;5801;50.804;12.638;2023-04-15T14:58:04;5.47;;;3.95;;
11488;SDS011;5801;50.804;12.638;2023-04-15T15:00:32;7.45;;;3.97;;
11488;SDS011;5801;50.804;12.638;2023-04-15T15:02:58;6.13;;;4.43;;
11488;SDS011;5801;50.804;12.638;2023-04-15T15:05:24;4.10;;;3.65;;
11488;SDS011;5801;50.804;12.638;2023-04-15T15:07:49;5.72;;;3.60;;
11488;SDS011;5801;50.804;12.638;2023-04-15T15:10:15;4.88;;;3.38;;
11488;SDS011;5801;50.804;12.638;2023-04-15T15:12:40;5.78;;;3.92;;
11488;SDS011;5801;50.804;12.638;2023-04-15T15:15:06;5.07;;;3.30;;
11488;SDS011;5801;50.804;12.638;2023-04-15T15:17:33;5.85;;;4.38;;
11488;SDS011;5801;50.804;12.638;2023-04-15T15:19:59;5.65;;;3.85;;
11488;SDS011;5801;50.804;12.638;2023-04-15T15:22:25;6.30;;;3.88;;
11488;SDS011;5801;50.804;12.638;2023-04-15T15:24:51;5.10;;;3.58;;